Terminal Aerodrome Forecast
Issued by NWS

Home | Current Version | Previous Version | Text Only | Print | Product List | Glossary On
Versions: 1 2 3 4 5 6 7 8 9 10 11 12 13 14 15 16 17 18 19 20 21
503
FTUS46 KMTR 080532
TAFSTS
TAF
KSTS 080532Z 0806/0906 15003KT P6SM SKC
     FM081300 00000KT 5SM BR SCT001
     FM081600 16006KT P6SM SKC
     FM090300 VRB03KT P6SM SKC=

USA.gov is the U.S. government's official web portal to all federal, state and local government web resources and services.